Time;durP1;ratioP1;P1;durP2;ratioP2;P2;SDS_P1;SDS_P2;PMS_P1;PMS_P2;Temp;Humidity;BMP_temperature;BMP_pressure;BME280_temperature;BME280_humidity;BME280_pressure;Samples;Min_cycle;Max_cycle;Signal;HPM_P1;HPM_P2
2022/10/30 00:01:43;;;;;;;;;;;20.30;77.40;;;;;;5071041;28;20057;-66
2022/10/30 00:04:08;;;;;;;;;;;20.30;77.40;;;;;;5072114;28;19924;-66
2022/10/30 00:06:34;;;;;;;;;;;20.30;77.40;;;;;;5071692;28;19925;-66
2022/10/30 00:08:59;;;;;;;;;;;20.20;77.40;;;;;;5071977;28;19946;-66
2022/10/30 00:11:25;;;;;;;;;;;20.30;77.40;;;;;;5071641;28;19974;-66
2022/10/30 00:13:50;;;;;;;;;;;20.30;77.40;;;;;;5071584;28;19924;-65
2022/10/30 00:16:16;;;;;;;;;;;20.20;77.40;;;;;;5070564;28;19929;-66
2022/10/30 00:18:42;;;;;;;;;;;20.20;77.30;;;;;;5075470;28;19924;-66
2022/10/30 00:21:11;;;;;;;;;;;20.20;77.30;;;;;;5074937;28;19924;-66
2022/10/30 00:23:37;;;;;;;;;;;20.20;77.30;;;;;;5074625;28;19978;-65
2022/10/30 00:26:03;;;;;;;;;;;20.20;77.30;;;;;;5075336;28;19920;-65
2022/10/30 00:28:28;;;;;;;;;;;20.20;77.30;;;;;;5074493;28;19925;-66
2022/10/30 00:30:57;;;;;;;;;;;20.20;77.30;;;;;;5075756;28;19927;-66
2022/10/30 00:33:22;;;;;;;;;;;20.20;77.30;;;;;;5074982;28;20376;-66
2022/10/30 00:35:48;;;;;;;;;;;20.20;77.30;;;;;;5076394;28;19931;-66
2022/10/30 00:38:13;;;;;;;;;;;20.20;77.20;;;;;;5076183;28;20015;-66
2022/10/30 00:40:39;;;;;;;;;;;20.20;77.20;;;;;;5073098;28;20384;-66
2022/10/30 00:43:23;;;;;;;;;;;20.20;77.20;;;;;;5075208;28;19932;-66
2022/10/30 00:45:49;;;;;;;;;;;20.20;77.20;;;;;;5074036;28;20077;-66
2022/10/30 00:48:14;;;;;;;;;;;20.20;77.80;;;;;;5074115;28;20019;-65
2022/10/30 00:50:40;;;;;;;;;;;20.20;77.20;;;;;;5073562;28;20303;-66
2022/10/30 00:53:10;;;;;;;;;;;20.20;77.20;;;;;;5075028;28;20065;-66
2022/10/30 00:55:46;;;;;;;;;;;20.20;77.10;;;;;;5073074;28;20392;-65
2022/10/30 00:58:13;;;;;;;;;;;20.20;77.10;;;;;;5073480;28;19924;-66
2022/10/30 01:00:39;;;;;;;;;;;20.20;77.10;;;;;;5073921;28;19929;-65
2022/10/30 01:03:05;;;;;;;;;;;20.20;77.10;;;;;;5074062;28;19925;-65
2022/10/30 01:05:30;;;;;;;;;;;20.20;77.10;;;;;;5074002;28;20019;-65
2022/10/30 01:07:56;;;;;;;;;;;20.10;77.00;;;;;;5073937;28;19975;-66
2022/10/30 01:10:21;;;;;;;;;;;20.10;77.00;;;;;;5073994;28;19986;-66
2022/10/30 01:12:47;;;;;;;;;;;20.10;77.00;;;;;;5074477;28;20322;-65
2022/10/30 01:15:12;;;;;;;;;;;20.10;77.00;;;;;;5074205;28;19977;-65
2022/10/30 01:18:04;;;;;;;;;;;20.10;77.00;;;;;;5106854;28;19930;-65
2022/10/30 01:20:34;;;;;;;;;;;20.10;77.00;;;;;;5050323;28;19924;-66
2022/10/30 01:23:03;;;;;;;;;;;20.20;77.00;;;;;;5072839;28;19980;-66
2022/10/30 01:25:28;;;;;;;;;;;20.10;77.00;;;;;;5074272;28;19932;-66
2022/10/30 01:28:03;;;;;;;;;;;20.20;77.00;;;;;;5072756;28;19925;-65
2022/10/30 01:30:36;;;;;;;;;;;20.10;77.00;;;;;;5071513;28;19978;-65
2022/10/30 01:33:02;;;;;;;;;;;20.10;77.00;;;;;;5073214;28;19982;-65
2022/10/30 01:35:33;;;;;;;;;;;20.10;76.90;;;;;;5074247;28;19924;-65
2022/10/30 01:38:03;;;;;;;;;;;20.10;77.00;;;;;;5072615;28;20015;-65
2022/10/30 01:40:28;;;;;;;;;;;20.10;77.00;;;;;;5071490;28;19931;-65
2022/10/30 01:42:54;;;;;;;;;;;20.10;76.90;;;;;;5074689;28;19929;-65
2022/10/30 01:45:25;;;;;;;;;;;20.10;76.90;;;;;;5073544;28;19928;-65
2022/10/30 01:48:06;;;;;;;;;;;20.10;76.90;;;;;;5073552;28;19924;-65
2022/10/30 01:50:31;;;;;;;;;;;20.10;76.90;;;;;;5073893;28;19924;-65
2022/10/30 01:53:05;;;;;;;;;;;20.10;76.90;;;;;;5073377;28;20016;-66
2022/10/30 01:55:53;;;;;;;;;;;20.10;76.80;;;;;;5074080;28;20041;-65
2022/10/30 01:58:19;;;;;;;;;;;20.10;76.90;;;;;;5071870;28;19935;-65
2022/10/30 02:00:45;;;;;;;;;;;20.10;76.90;;;;;;5073758;28;20375;-66
2022/10/30 02:03:10;;;;;;;;;;;20.10;76.80;;;;;;5071358;28;20019;-65
2022/10/30 02:05:43;;;;;;;;;;;20.10;76.90;;;;;;5072982;28;20299;-65
2022/10/30 02:08:08;;;;;;;;;;;20.10;76.80;;;;;;5071659;28;19924;-65
2022/10/30 02:10:34;;;;;;;;;;;20.10;76.80;;;;;;5073986;28;19931;-65
2022/10/30 02:13:00;;;;;;;;;;;20.00;76.70;;;;;;5071653;28;20368;-66
2022/10/30 02:15:25;;;;;;;;;;;20.10;76.80;;;;;;5072115;28;20013;-68
2022/10/30 02:17:51;;;;;;;;;;;20.10;76.80;;;;;;5074025;28;20360;-67
2022/10/30 02:20:17;;;;;;;;;;;20.00;76.70;;;;;;5071330;28;19928;-66
2022/10/30 02:22:42;;;;;;;;;;;20.00;76.70;;;;;;5073622;28;19973;-65
2022/10/30 02:25:08;;;;;;;;;;;20.10;76.80;;;;;;5073069;28;19978;-65
2022/10/30 02:27:33;;;;;;;;;;;20.00;76.70;;;;;;5072486;28;19985;-65
2022/10/30 02:29:59;;;;;;;;;;;20.00;76.70;;;;;;5073352;28;19924;-65
2022/10/30 02:32:24;;;;;;;;;;;20.00;76.70;;;;;;5072128;28;20279;-65
2022/10/30 02:34:50;;;;;;;;;;;20.00;76.70;;;;;;5072455;28;19924;-65
2022/10/30 02:37:15;;;;;;;;;;;20.00;76.70;;;;;;5071125;28;19944;-65
2022/10/30 02:39:41;;;;;;;;;;;20.00;76.60;;;;;;5072569;28;19955;-66
2022/10/30 02:42:06;;;;;;;;;;;20.00;76.60;;;;;;5071684;28;19935;-65
2022/10/30 02:44:32;;;;;;;;;;;20.00;76.60;;;;;;5073186;28;19967;-65
2022/10/30 02:46:57;;;;;;;;;;;20.00;76.60;;;;;;5072546;28;20375;-65
2022/10/30 02:49:23;;;;;;;;;;;20.00;76.60;;;;;;5071176;28;20381;-66
2022/10/30 02:51:48;;;;;;;;;;;20.00;76.60;;;;;;5071589;28;19925;-65
2022/10/30 02:54:14;;;;;;;;;;;20.00;76.60;;;;;;5069693;28;19924;-65
2022/10/30 02:56:39;;;;;;;;;;;20.00;76.60;;;;;;5071528;28;20023;-65
2022/10/30 02:59:05;;;;;;;;;;;20.00;76.60;;;;;;5072598;28;19921;-65
2022/10/30 03:01:30;;;;;;;;;;;20.00;77.10;;;;;;5069838;28;19928;-65
2022/10/30 03:03:56;;;;;;;;;;;20.00;76.50;;;;;;5052290;28;20027;-65
2022/10/30 03:06:21;;;;;;;;;;;20.00;76.50;;;;;;5052184;28;20026;-65
2022/10/30 03:08:47;;;;;;;;;;;20.00;76.40;;;;;;5051810;28;20020;-65
2022/10/30 03:11:14;;;;;;;;;;;20.00;76.40;;;;;;5069417;28;19973;-65
2022/10/30 03:13:39;;;;;;;;;;;20.00;76.40;;;;;;5072815;28;19970;-65
2022/10/30 03:16:09;;;;;;;;;;;20.00;76.40;;;;;;5071953;28;19929;-64
2022/10/30 03:18:34;;;;;;;;;;;20.00;76.40;;;;;;5072667;28;19925;-64
2022/10/30 03:21:01;;;;;;;;;;;19.90;76.40;;;;;;5072490;28;19931;-66
2022/10/30 03:23:27;;;;;;;;;;;19.90;76.30;;;;;;5070175;28;19933;-66
2022/10/30 03:25:53;;;;;;;;;;;19.90;76.30;;;;;;5072542;28;19924;-65
2022/10/30 03:28:18;;;;;;;;;;;19.90;76.30;;;;;;5072364;28;20364;-66
2022/10/30 03:30:44;;;;;;;;;;;20.00;76.40;;;;;;5072169;28;20003;-66
2022/10/30 03:33:09;;;;;;;;;;;19.90;76.50;;;;;;5071866;28;20391;-66
2022/10/30 03:35:35;;;;;;;;;;;20.00;76.60;;;;;;5072563;28;20019;-67
2022/10/30 03:38:00;;;;;;;;;;;20.00;76.60;;;;;;5072146;28;20387;-66
2022/10/30 03:40:26;;;;;;;;;;;20.00;76.60;;;;;;5072014;28;20030;-66
2022/10/30 03:42:51;;;;;;;;;;;19.90;76.60;;;;;;5072557;28;19928;-66
2022/10/30 03:45:17;;;;;;;;;;;20.00;76.60;;;;;;5070096;28;20337;-65
2022/10/30 03:47:42;;;;;;;;;;;20.00;76.50;;;;;;5072573;28;19931;-66
2022/10/30 03:50:09;;;;;;;;;;;20.00;76.40;;;;;;5071367;28;21532;-66
2022/10/30 03:52:35;;;;;;;;;;;20.00;76.40;;;;;;5073477;28;19979;-66
2022/10/30 03:55:00;;;;;;;;;;;20.00;76.40;;;;;;5075447;28;20023;-66
2022/10/30 03:57:26;;;;;;;;;;;20.00;76.30;;;;;;5075779;28;20414;-65
2022/10/30 03:59:51;;;;;;;;;;;20.00;76.40;;;;;;5075549;28;19925;-65
2022/10/30 04:02:17;;;;;;;;;;;20.00;76.40;;;;;;5075571;28;20286;-65
2022/10/30 04:04:42;;;;;;;;;;;20.00;76.40;;;;;;5075015;28;19925;-65
2022/10/30 04:07:08;;;;;;;;;;;20.00;77.00;;;;;;5074251;28;19929;-65
2022/10/30 04:09:33;;;;;;;;;;;20.00;76.40;;;;;;5075690;28;19928;-65
2022/10/30 04:11:59;;;;;;;;;;;20.00;76.40;;;;;;5075238;28;19968;-65
2022/10/30 04:14:24;;;;;;;;;;;20.00;76.50;;;;;;5075684;28;19924;-65
2022/10/30 04:16:50;;;;;;;;;;;20.00;76.50;;;;;;5075958;28;19957;-65
2022/10/30 04:19:15;;;;;;;;;;;20.00;76.50;;;;;;5073686;28;19925;-65
2022/10/30 04:21:42;;;;;;;;;;;20.00;76.40;;;;;;5075920;28;19921;-65
2022/10/30 04:24:08;;;;;;;;;;;19.90;76.40;;;;;;5075420;28;19931;-66
2022/10/30 04:26:33;;;;;;;;;;;19.90;76.40;;;;;;5073570;28;19924;-66
2022/10/30 04:28:59;;;;;;;;;;;19.90;76.40;;;;;;5075388;28;19920;-66
2022/10/30 04:31:24;;;;;;;;;;;19.90;76.40;;;;;;5075239;28;19928;-65
2022/10/30 04:33:50;;;;;;;;;;;20.00;76.50;;;;;;5074437;28;19924;-66
2022/10/30 04:36:17;;;;;;;;;;;19.90;76.50;;;;;;5075188;28;19924;-65
2022/10/30 04:38:42;;;;;;;;;;;19.90;76.40;;;;;;5075522;28;19978;-65
2022/10/30 04:41:08;;;;;;;;;;;19.90;76.40;;;;;;5074328;28;19924;-66
2022/10/30 04:43:33;;;;;;;;;;;19.90;76.50;;;;;;5074992;28;20296;-65
2022/10/30 04:46:02;;;;;;;;;;;19.90;76.50;;;;;;5075431;28;19924;-66
2022/10/30 04:48:27;;;;;;;;;;;19.90;76.50;;;;;;5074109;28;20280;-66
2022/10/30 04:50:53;;;;;;;;;;;19.90;76.50;;;;;;5075096;28;20384;-66
2022/10/30 04:53:19;;;;;;;;;;;19.90;76.60;;;;;;5074921;28;19969;-66
2022/10/30 04:55:45;;;;;;;;;;;19.90;76.50;;;;;;5074566;28;19925;-66
2022/10/30 04:58:11;;;;;;;;;;;19.90;76.60;;;;;;5074821;28;19931;-65
2022/10/30 05:00:36;;;;;;;;;;;19.90;76.60;;;;;;5072340;28;19925;-65
2022/10/30 05:03:02;;;;;;;;;;;19.90;76.60;;;;;;5065388;28;19931;-66
2022/10/30 05:05:28;;;;;;;;;;;19.90;76.50;;;;;;5052762;28;20438;-65
2022/10/30 05:07:53;;;;;;;;;;;19.90;77.10;;;;;;5069101;28;19924;-65
2022/10/30 05:10:19;;;;;;;;;;;19.90;76.60;;;;;;5054589;28;19925;-66
2022/10/30 05:12:44;;;;;;;;;;;19.90;76.60;;;;;;5054501;28;20407;-65
2022/10/30 05:15:10;;;;;;;;;;;19.90;76.50;;;;;;5053589;28;19932;-66
2022/10/30 05:17:36;;;;;;;;;;;19.90;76.60;;;;;;5054688;28;19929;-65
2022/10/30 05:20:01;;;;;;;;;;;19.90;76.50;;;;;;5054598;28;19967;-65
2022/10/30 05:22:27;;;;;;;;;;;19.90;76.30;;;;;;5053417;28;20435;-66
2022/10/30 05:24:52;;;;;;;;;;;19.90;76.40;;;;;;5054717;28;19925;-65
2022/10/30 05:27:17;;;;;;;;;;;19.90;76.30;;;;;;5053889;28;19925;-66
2022/10/30 05:29:43;;;;;;;;;;;19.90;76.40;;;;;;5053666;28;20015;-66
2022/10/30 05:32:08;;;;;;;;;;;19.90;76.40;;;;;;5053914;28;19920;-65
2022/10/30 05:34:34;;;;;;;;;;;19.90;76.30;;;;;;5054462;28;19924;-66
2022/10/30 05:37:00;;;;;;;;;;;19.90;76.40;;;;;;5053639;28;19925;-65
2022/10/30 05:39:25;;;;;;;;;;;19.90;76.30;;;;;;5053990;28;19964;-65
2022/10/30 05:41:51;;;;;;;;;;;19.90;76.40;;;;;;5053979;28;20330;-65
2022/10/30 05:44:16;;;;;;;;;;;19.90;76.40;;;;;;5052939;28;19929;-65
2022/10/30 05:46:42;;;;;;;;;;;19.90;76.40;;;;;;5069852;28;20027;-65
2022/10/30 05:49:07;;;;;;;;;;;19.90;76.40;;;;;;5053789;28;19924;-67
2022/10/30 05:51:33;;;;;;;;;;;19.90;76.40;;;;;;5053522;28;19925;-65
2022/10/30 05:53:58;;;;;;;;;;;20.00;76.50;;;;;;5053749;28;19932;-65
2022/10/30 05:56:24;;;;;;;;;;;20.00;76.50;;;;;;5053906;28;19967;-66
2022/10/30 05:58:49;;;;;;;;;;;20.00;76.50;;;;;;5065584;28;19925;-66
2022/10/30 06:01:15;;;;;;;;;;;20.00;76.60;;;;;;5106193;28;20273;-66
2022/10/30 06:03:40;;;;;;;;;;;20.00;76.50;;;;;;5074035;28;20049;-65
2022/10/30 06:06:06;;;;;;;;;;;20.00;76.50;;;;;;5072248;28;19928;-66
2022/10/30 06:08:31;;;;;;;;;;;20.00;76.50;;;;;;5074039;28;20418;-67
2022/10/30 06:10:57;;;;;;;;;;;20.00;76.30;;;;;;5073851;28;19932;-65
2022/10/30 06:13:22;;;;;;;;;;;20.00;76.20;;;;;;5072404;28;20042;-65
2022/10/30 06:15:48;;;;;;;;;;;20.00;76.30;;;;;;5072445;28;19929;-65
2022/10/30 06:18:13;;;;;;;;;;;20.00;76.30;;;;;;5072424;28;19990;-65
2022/10/30 06:20:39;;;;;;;;;;;20.10;76.20;;;;;;5106307;28;19932;-65
2022/10/30 06:23:05;;;;;;;;;;;20.10;76.20;;;;;;5073450;28;19924;-65
2022/10/30 06:25:31;;;;;;;;;;;20.10;76.20;;;;;;5072407;28;20009;-65
2022/10/30 06:27:57;;;;;;;;;;;20.10;76.20;;;;;;5106019;28;19928;-65
2022/10/30 06:30:23;;;;;;;;;;;20.10;76.20;;;;;;5072891;28;19974;-65
2022/10/30 06:32:48;;;;;;;;;;;20.10;76.20;;;;;;5072535;28;19924;-65
2022/10/30 06:35:14;;;;;;;;;;;20.10;76.20;;;;;;5072855;28;19958;-65
2022/10/30 06:37:46;;;;;;;;;;;20.10;76.20;;;;;;5073336;28;19924;-65
2022/10/30 06:40:11;;;;;;;;;;;20.10;76.30;;;;;;5072338;28;19959;-63
2022/10/30 06:42:41;;;;;;;;;;;20.10;76.20;;;;;;5072635;28;19983;-65
2022/10/30 06:45:06;;;;;;;;;;;20.10;76.10;;;;;;5072813;28;19993;-65
2022/10/30 06:47:35;;;;;;;;;;;20.10;76.40;;;;;;5072182;28;20334;-65
2022/10/30 06:50:00;;;;;;;;;;;20.10;76.10;;;;;;5072874;28;20372;-65
2022/10/30 06:52:26;;;;;;;;;;;20.10;76.10;;;;;;5072650;28;19928;-65
2022/10/30 06:54:51;;;;;;;;;;;20.20;76.20;;;;;;5072277;28;19932;-65
2022/10/30 06:57:17;;;;;;;;;;;20.10;76.20;;;;;;5072476;28;19929;-65
2022/10/30 06:59:42;;;;;;;;;;;20.20;76.20;;;;;;5072824;28;19932;-65
2022/10/30 07:02:09;;;;;;;;;;;20.20;76.20;;;;;;5071967;28;20065;-65
2022/10/30 07:04:34;;;;;;;;;;;20.20;76.20;;;;;;5072349;28;19947;-65
2022/10/30 07:06:59;;;;;;;;;;;20.20;76.20;;;;;;5072934;28;20379;-65
2022/10/30 07:09:25;;;;;;;;;;;20.10;76.20;;;;;;5071010;28;19928;-65
2022/10/30 07:11:50;;;;;;;;;;;20.20;76.20;;;;;;5071240;28;19947;-65
2022/10/30 07:14:16;;;;;;;;;;;20.10;76.20;;;;;;5072857;28;19931;-65
2022/10/30 07:16:41;;;;;;;;;;;20.20;76.20;;;;;;5071842;28;19963;-65
2022/10/30 07:19:07;;;;;;;;;;;20.10;76.20;;;;;;5071111;28;19935;-65
2022/10/30 07:21:32;;;;;;;;;;;20.10;76.20;;;;;;5072074;28;19920;-68
2022/10/30 07:23:58;;;;;;;;;;;20.10;76.20;;;;;;5072735;28;20361;-65
2022/10/30 07:26:23;;;;;;;;;;;20.10;76.20;;;;;;5071756;28;19920;-64
2022/10/30 07:28:49;;;;;;;;;;;20.10;76.30;;;;;;5074215;28;19928;-66
2022/10/30 07:31:14;;;;;;;;;;;20.10;76.30;;;;;;5076615;28;20019;-63
2022/10/30 07:33:40;;;;;;;;;;;20.10;76.40;;;;;;5076660;28;19970;-65
2022/10/30 07:36:05;;;;;;;;;;;20.10;76.40;;;;;;5075039;28;20319;-65
2022/10/30 07:38:31;;;;;;;;;;;20.20;76.30;;;;;;5075290;28;19924;-66
2022/10/30 07:40:56;;;;;;;;;;;20.20;76.30;;;;;;5076235;28;19928;-67
2022/10/30 07:43:22;;;;;;;;;;;20.20;76.30;;;;;;5075166;28;19924;-65
2022/10/30 07:45:47;;;;;;;;;;;20.20;76.30;;;;;;5057506;28;20425;-66
2022/10/30 07:48:13;;;;;;;;;;;20.20;76.40;;;;;;5075992;28;19924;-65
2022/10/30 07:50:38;;;;;;;;;;;20.20;76.20;;;;;;5075151;28;19924;-65
2022/10/30 07:53:04;;;;;;;;;;;20.20;76.30;;;;;;5076421;28;19924;-65
2022/10/30 07:55:29;;;;;;;;;;;20.20;76.20;;;;;;5075934;28;19931;-65
2022/10/30 07:57:55;;;;;;;;;;;20.20;76.20;;;;;;5075625;28;20013;-65
2022/10/30 08:00:20;;;;;;;;;;;20.20;76.20;;;;;;5075928;28;19928;-65
2022/10/30 08:02:49;;;;;;;;;;;20.20;76.10;;;;;;5076195;28;20291;-65
2022/10/30 08:05:15;;;;;;;;;;;20.20;76.10;;;;;;5074195;28;19934;-65
2022/10/30 08:07:40;;;;;;;;;;;20.20;76.10;;;;;;5075739;28;19924;-66
2022/10/30 08:10:06;;;;;;;;;;;20.30;76.20;;;;;;5074974;28;19966;-65
2022/10/30 08:12:32;;;;;;;;;;;20.30;76.20;;;;;;5075242;28;19921;-64
2022/10/30 08:14:57;;;;;;;;;;;20.30;76.20;;;;;;5074751;28;19968;-63
2022/10/30 08:17:23;;;;;;;;;;;20.30;76.30;;;;;;5075295;28;20069;-64
2022/10/30 08:19:48;;;;;;;;;;;20.30;76.30;;;;;;5075619;28;19924;-64
2022/10/30 08:22:14;;;;;;;;;;;20.30;76.40;;;;;;5076108;28;20276;-64
2022/10/30 08:24:39;;;;;;;;;;;20.30;76.30;;;;;;5075960;28;19924;-64
2022/10/30 08:27:05;;;;;;;;;;;20.40;76.50;;;;;;5074233;28;19925;-64
2022/10/30 08:29:30;;;;;;;;;;;20.40;76.40;;;;;;5075230;28;20023;-65
2022/10/30 08:31:56;;;;;;;;;;;20.40;76.40;;;;;;5074884;28;19964;-64
2022/10/30 08:34:21;;;;;;;;;;;20.40;76.40;;;;;;5074761;28;19975;-64
2022/10/30 08:36:50;;;;;;;;;;;20.40;76.40;;;;;;5075110;28;19932;-63
2022/10/30 08:39:16;;;;;;;;;;;20.40;76.40;;;;;;5070813;28;19978;-64
2022/10/30 08:41:41;;;;;;;;;;;20.50;76.40;;;;;;5072808;28;19924;-65
2022/10/30 08:44:07;;;;;;;;;;;20.50;76.50;;;;;;5074429;28;19928;-65
2022/10/30 08:46:32;;;;;;;;;;;20.50;76.50;;;;;;5074220;28;19925;-64
2022/10/30 08:48:57;;;;;;;;;;;20.50;76.50;;;;;;5074752;28;19928;-65
2022/10/30 08:51:23;;;;;;;;;;;20.50;76.50;;;;;;5056453;28;19924;-65
2022/10/30 08:53:48;;;;;;;;;;;20.60;76.50;;;;;;5073777;28;20334;-66
2022/10/30 08:56:14;;;;;;;;;;;20.60;76.50;;;;;;5074157;28;19972;-65
2022/10/30 08:58:40;;;;;;;;;;;20.60;76.50;;;;;;5074532;28;19925;-64
2022/10/30 09:01:05;;;;;;;;;;;20.60;76.50;;;;;;5074206;28;19931;-66
2022/10/30 09:03:31;;;;;;;;;;;20.60;76.50;;;;;;5075020;28;19920;-65
2022/10/30 09:05:57;;;;;;;;;;;20.60;76.60;;;;;;5075184;28;19924;-66
2022/10/30 09:08:22;;;;;;;;;;;20.60;76.50;;;;;;5073823;28;19924;-65
2022/10/30 09:10:52;;;;;;;;;;;20.70;76.60;;;;;;5074196;28;20284;-65
2022/10/30 09:13:18;;;;;;;;;;;20.70;77.20;;;;;;5073918;28;20379;-65
2022/10/30 09:15:43;;;;;;;;;;;20.70;76.60;;;;;;5051221;28;19932;-65
2022/10/30 09:18:09;;;;;;;;;;;20.70;76.60;;;;;;5071581;28;19971;-66
2022/10/30 09:20:34;;;;;;;;;;;20.70;76.50;;;;;;5074105;28;20372;-66
2022/10/30 09:23:00;;;;;;;;;;;20.70;76.40;;;;;;5072781;28;19977;-66
2022/10/30 09:25:25;;;;;;;;;;;20.70;76.40;;;;;;5073439;28;19928;-65
2022/10/30 09:27:51;;;;;;;;;;;20.70;76.40;;;;;;5076367;28;20427;-66
2022/10/30 09:30:16;;;;;;;;;;;20.70;76.40;;;;;;5073163;28;19932;-66
2022/10/30 09:32:42;;;;;;;;;;;20.70;76.40;;;;;;5074142;28;20558;-66
2022/10/30 09:35:07;;;;;;;;;;;20.70;76.30;;;;;;5073819;28;20372;-66
2022/10/30 09:37:36;;;;;;;;;;;20.70;76.30;;;;;;5073966;28;19979;-65
2022/10/30 09:40:03;;;;;;;;;;;20.70;76.30;;;;;;5074252;28;20280;-66
2022/10/30 09:42:32;;;;;;;;;;;20.70;76.30;;;;;;5072843;28;19929;-65
2022/10/30 09:45:02;;;;;;;;;;;20.70;76.40;;;;;;5074475;28;20022;-65
2022/10/30 09:47:34;;;;;;;;;;;20.70;76.60;;;;;;5056516;28;20043;-66
2022/10/30 09:50:02;;;;;;;;;;;20.70;76.70;;;;;;5051236;28;19931;-65
2022/10/30 09:52:39;;;;;;;;;;;20.70;76.70;;;;;;5051543;28;19958;-65
2022/10/30 09:55:12;;;;;;;;;;;20.70;76.70;;;;;;5073099;28;19924;-66
2022/10/30 09:57:43;;;;;;;;;;;20.70;76.70;;;;;;5072022;28;20054;-65
2022/10/30 10:00:12;;;;;;;;;;;20.70;76.80;;;;;;5073849;28;19925;-65
2022/10/30 10:02:47;;;;;;;;;;;20.70;76.80;;;;;;5056403;28;20019;-65
2022/10/30 10:05:14;;;;;;;;;;;20.70;76.80;;;;;;5072097;28;20404;-65
2022/10/30 10:07:46;;;;;;;;;;;20.70;76.80;;;;;;5062618;28;19947;-65
2022/10/30 10:10:14;;;;;;;;;;;20.70;76.80;;;;;;5071922;28;19932;-65
2022/10/30 10:12:44;;;;;;;;;;;20.70;76.80;;;;;;5072892;28;20007;-65
2022/10/30 10:15:20;;;;;;;;;;;20.70;76.90;;;;;;5054636;28;20376;-65
2022/10/30 10:17:46;;;;;;;;;;;20.70;76.90;;;;;;5072534;28;19925;-65
2022/10/30 10:20:24;;;;;;;;;;;20.70;76.80;;;;;;5073057;28;19928;-66
2022/10/30 10:22:50;;;;;;;;;;;20.70;76.80;;;;;;5074347;28;19928;-66
2022/10/30 10:25:16;;;;;;;;;;;20.70;76.70;;;;;;5072789;28;19970;-65
2022/10/30 10:27:42;;;;;;;;;;;20.70;76.70;;;;;;5072716;28;20364;-65
2022/10/30 10:30:09;;;;;;;;;;;20.70;76.70;;;;;;5072478;28;19934;-66
2022/10/30 10:32:53;;;;;;;;;;;20.70;76.80;;;;;;5072894;28;19950;-66
2022/10/30 10:35:37;;;;;;;;;;;20.70;76.80;;;;;;5072150;28;19932;-65
2022/10/30 10:38:21;;;;;;;;;;;20.70;76.90;;;;;;5072644;28;19928;-66
2022/10/30 10:40:50;;;;;;;;;;;20.70;77.00;;;;;;5072354;28;19925;-66
2022/10/30 10:43:20;;;;;;;;;;;20.70;77.00;;;;;;5055091;28;19931;-66
2022/10/30 10:46:04;;;;;;;;;;;20.70;76.90;;;;;;5054814;28;19928;-66
2022/10/30 10:48:40;;;;;;;;;;;20.70;77.00;;;;;;5072274;28;20360;-66
2022/10/30 10:51:10;;;;;;;;;;;20.70;76.90;;;;;;5072896;28;19947;-67
2022/10/30 10:53:39;;;;;;;;;;;20.70;76.90;;;;;;5054375;28;19925;-66
2022/10/30 10:56:05;;;;;;;;;;;20.70;77.00;;;;;;5072832;28;19924;-66
2022/10/30 10:58:30;;;;;;;;;;;20.70;77.00;;;;;;5088491;28;20276;-66
2022/10/30 11:00:57;;;;;;;;;;;20.70;77.00;;;;;;5072124;28;20042;-66
2022/10/30 11:03:40;;;;;;;;;;;20.70;77.10;;;;;;5087961;28;19924;-65
2022/10/30 11:06:31;;;;;;;;;;;20.70;77.00;;;;;;5088058;28;19925;-69
2022/10/30 11:09:00;;;;;;;;;;;20.60;77.00;;;;;;5063372;28;19935;-66
2022/10/30 11:11:25;;;;;;;;;;;20.60;77.00;;;;;;5065288;28;19933;-67
2022/10/30 11:13:51;;;;;;;;;;;20.60;77.10;;;;;;5068290;28;20376;-65
2022/10/30 11:16:22;;;;;;;;;;;20.60;77.10;;;;;;5070552;28;19924;-65
2022/10/30 11:18:49;;;;;;;;;;;20.70;77.20;;;;;;5067849;28;20398;-65
2022/10/30 11:21:16;;;;;;;;;;;20.60;77.20;;;;;;5068469;28;19925;-65
2022/10/30 11:23:43;;;;;;;;;;;20.60;77.30;;;;;;5070450;28;20044;-65
2022/10/30 11:26:17;;;;;;;;;;;20.70;77.30;;;;;;5070111;28;20465;-65
2022/10/30 11:28:42;;;;;;;;;;;20.70;77.30;;;;;;5068136;28;19930;-66
2022/10/30 11:31:29;;;;;;;;;;;20.70;77.30;;;;;;5069978;28;20295;-66
2022/10/30 11:33:54;;;;;;;;;;;20.70;77.30;;;;;;5069450;28;19925;-65
2022/10/30 11:36:23;;;;;;;;;;;20.70;77.30;;;;;;5069293;28;19924;-66
2022/10/30 11:38:49;;;;;;;;;;;20.70;77.30;;;;;;5069354;28;19920;-66
2022/10/30 11:41:15;;;;;;;;;;;20.70;77.40;;;;;;5069961;28;20061;-67
2022/10/30 11:43:40;;;;;;;;;;;20.70;77.50;;;;;;5069661;28;19928;-65
2022/10/30 11:46:08;;;;;;;;;;;20.70;77.40;;;;;;5051958;28;20021;-65
2022/10/30 11:48:35;;;;;;;;;;;20.70;77.40;;;;;;5058023;28;20007;-66
2022/10/30 11:51:01;;;;;;;;;;;20.70;77.40;;;;;;5056140;28;19929;-66
2022/10/30 11:53:31;;;;;;;;;;;20.70;77.40;;;;;;5069387;28;19962;-66
2022/10/30 11:55:57;;;;;;;;;;;20.70;77.40;;;;;;5069974;28;20327;-66
2022/10/30 11:58:24;;;;;;;;;;;20.70;77.40;;;;;;5069112;28;20396;-66
2022/10/30 12:01:00;;;;;;;;;;;20.70;77.50;;;;;;5070782;28;19931;-66
2022/10/30 12:03:29;;;;;;;;;;;20.70;77.50;;;;;;5041394;28;19929;-65
2022/10/30 12:06:13;;;;;;;;;;;20.70;77.50;;;;;;5070203;28;20050;-66
2022/10/30 12:08:39;;;;;;;;;;;20.70;77.30;;;;;;5068938;28;19932;-66
2022/10/30 12:11:04;;;;;;;;;;;20.70;77.10;;;;;;5069529;28;19925;-68
2022/10/30 12:13:31;;;;;;;;;;;20.70;77.20;;;;;;5070392;28;19960;-65
2022/10/30 12:16:07;;;;;;;;;;;20.80;77.20;;;;;;5074054;28;20005;-65
2022/10/30 12:18:32;;;;;;;;;;;20.80;77.00;;;;;;5073091;28;20479;-66
2022/10/30 12:20:58;;;;;;;;;;;20.70;77.00;;;;;;5064278;28;19939;-66
2022/10/30 12:23:24;;;;;;;;;;;20.80;77.10;;;;;;5072927;28;19924;-65
2022/10/30 12:25:57;;;;;;;;;;;20.80;77.20;;;;;;5073469;28;19921;-65
2022/10/30 12:28:23;;;;;;;;;;;20.80;77.20;;;;;;5075286;28;19970;-65
2022/10/30 12:30:58;;;;;;;;;;;20.80;77.20;;;;;;5074635;28;20409;-65
2022/10/30 12:33:24;;;;;;;;;;;20.80;77.10;;;;;;5072520;28;19931;-65
2022/10/30 12:35:57;;;;;;;;;;;20.80;77.20;;;;;;5073570;28;19925;-64
2022/10/30 12:38:27;;;;;;;;;;;20.90;77.30;;;;;;5053264;28;20001;-65
2022/10/30 12:40:57;;;;;;;;;;;20.90;77.30;;;;;;5055084;28;19963;-65
2022/10/30 12:43:24;;;;;;;;;;;20.90;77.30;;;;;;5070985;28;19931;-65
2022/10/30 12:45:50;;;;;;;;;;;20.90;77.30;;;;;;5073128;28;20347;-65
2022/10/30 12:48:17;;;;;;;;;;;20.90;77.30;;;;;;5072076;28;19920;-65
2022/10/30 12:50:48;;;;;;;;;;;20.90;77.30;;;;;;5055709;28;19964;-64
2022/10/30 12:53:32;;;;;;;;;;;20.90;77.30;;;;;;5071538;28;19932;-65
2022/10/30 12:55:59;;;;;;;;;;;20.90;77.30;;;;;;5073141;28;19928;-65
2022/10/30 12:58:44;;;;;;;;;;;21.00;77.40;;;;;;5054055;28;19928;-65
2022/10/30 13:01:25;;;;;;;;;;;21.00;77.40;;;;;;5059322;28;19925;-65
2022/10/30 13:03:52;;;;;;;;;;;21.00;77.40;;;;;;5054352;28;19954;-65
2022/10/30 13:06:19;;;;;;;;;;;20.90;77.40;;;;;;5054147;28;19929;-65
2022/10/30 13:08:58;;;;;;;;;;;21.00;77.40;;;;;;5054912;28;20015;-65
2022/10/30 13:11:23;;;;;;;;;;;21.00;77.40;;;;;;5038051;28;19924;-64
2022/10/30 13:13:49;;;;;;;;;;;21.00;77.30;;;;;;5071707;28;19924;-65
2022/10/30 13:18:47;;;;;;;;;;;21.10;77.30;;;;;;5057190;23;19925;-64
2022/10/30 13:21:39;;;;;;;;;;;21.10;77.10;;;;;;5040110;28;19932;-65
2022/10/30 13:24:08;;;;;;;;;;;21.10;77.00;;;;;;5009764;28;19969;-65
2022/10/30 13:26:37;;;;;;;;;;;21.10;77.00;;;;;;5041121;28;20300;-65
2022/10/30 13:29:04;;;;;;;;;;;21.10;76.90;;;;;;5042748;28;19931;-65
2022/10/30 13:31:41;;;;;;;;;;;21.20;77.00;;;;;;5038272;28;20434;-65
2022/10/30 13:34:26;;;;;;;;;;;21.20;76.90;;;;;;5021056;28;19993;-66
2022/10/30 13:37:00;;;;;;;;;;;21.20;76.80;;;;;;5043871;28;19937;-65
2022/10/30 13:39:39;;;;;;;;;;;21.20;76.80;;;;;;5041702;28;20119;-66
2022/10/30 13:42:24;;;;;;;;;;;21.20;76.70;;;;;;5042045;28;19944;-65
2022/10/30 13:44:58;;;;;;;;;;;21.20;76.70;;;;;;5043019;28;19951;-66
2022/10/30 13:47:36;;;;;;;;;;;21.20;76.60;;;;;;5040868;28;19925;-67
2022/10/30 13:50:04;;;;;;;;;;;21.20;76.60;;;;;;5041969;28;20008;-66
2022/10/30 13:52:30;;;;;;;;;;;21.20;76.50;;;;;;5036523;28;20071;-64
2022/10/30 13:55:14;;;;;;;;;;;21.20;76.50;;;;;;5024596;28;20007;-66
2022/10/30 13:57:49;;;;;;;;;;;21.30;76.70;;;;;;5041369;28;19925;-71
2022/10/30 14:00:22;;;;;;;;;;;21.30;76.90;;;;;;5039792;28;20453;-70
2022/10/30 14:03:03;;;;;;;;;;;21.30;77.00;;;;;;5020633;28;19925;-70
2022/10/30 14:05:37;;;;;;;;;;;21.30;77.00;;;;;;5042656;28;19932;-71
2022/10/30 14:08:08;;;;;;;;;;;21.30;77.10;;;;;;5034551;28;19925;-71
2022/10/30 14:10:34;;;;;;;;;;;21.30;77.10;;;;;;5043448;28;19925;-70
2022/10/30 14:13:13;;;;;;;;;;;21.30;77.10;;;;;;5040211;28;19925;-73
2022/10/30 14:15:43;;;;;;;;;;;21.30;77.10;;;;;;5044202;28;20493;-70
2022/10/30 14:18:11;;;;;;;;;;;21.30;77.10;;;;;;5037384;28;19967;-69
2022/10/30 14:20:40;;;;;;;;;;;21.30;77.10;;;;;;5039042;28;19979;-72
2022/10/30 14:23:18;;;;;;;;;;;21.30;77.20;;;;;;5042662;28;19925;-71